Decoded Metar for KBML (BERLIN in NH, USA) (IATA:BML) | Meteo·Mobile Aviation Weather
aviador You're here:

KBML Decoded Metar

BERLIN in NH, USA
Report Time2019-03-21 14:52:00
UTC Time2019-03-21 15:44:25
Flight Rules vfr VFR
WindCalm
Visibility9999 m
Phenomena:N/A
Clouds:Few 120 Hf
Expected CloudBase > 2,800 ft AGL from Temp-Dew spread
CeilingNone
Temp03°C (ISA -10)
Dew Point-4°C (60% RH)
AAT0.5°C
QNH1018 hPa
Density Alt-151 ft
Elevation1,132 ft
Report Wrong Elevation
Raw Report
KBML 211452Z AUTO 00000KT 10SM FEW120 03/M04 A3007 RMK AO2 SLP199
T00331044 58022=

Extra information for KBML:More info

Metar Taf Metar & Taf Last 4 Metars F.Rules Stats Wind Profile Meteogram Temp Stats Airport Information Weather charts Add Link Nearby VenuesMetar ALERT Operation Metar Decoded Social comments

AIRNAV info for KBML